createdAt,value
2023-04-08T00:00:57.286Z,102272.69
2023-04-08T00:03:23.881Z,102281.69
2023-04-08T00:05:50.467Z,102281.69
2023-04-08T00:08:16.992Z,102286.19
2023-04-08T00:10:43.428Z,102284.31
2023-04-08T00:13:09.946Z,102285.84
2023-04-08T00:15:36.985Z,102281.69
2023-04-08T00:18:03.709Z,102284.31
2023-04-08T00:20:30.338Z,102288.47
2023-04-08T00:22:56.847Z,102287.72
2023-04-08T00:25:25.377Z,102285.06
2023-04-08T00:27:52.432Z,102287.72
2023-04-08T00:30:19.469Z,102291.44
2023-04-08T00:32:46.855Z,102284.31
2023-04-08T00:35:13.961Z,102286.19
2023-04-08T00:37:40.883Z,102283.56
2023-04-08T00:40:07.852Z,102284.66
2023-04-08T00:42:34.316Z,102290.69
2023-04-08T00:45:00.945Z,102286.19
2023-04-08T00:47:27.480Z,102293.31
2023-04-08T00:49:53.990Z,102300.44
2023-04-08T00:52:20.669Z,102301.97
2023-04-08T00:54:47.251Z,102300.44
2023-04-08T00:57:13.932Z,102295.19
2023-04-08T00:59:41.279Z,102295.94
2023-04-08T01:02:23.066Z,102301.59
2023-04-08T01:04:57.745Z,102297.81
2023-04-08T01:07:31.284Z,102300.44
2023-04-08T01:10:03.984Z,102305.72
2023-04-08T01:12:32.808Z,102304.97
2023-04-08T01:15:06.883Z,102302.34
2023-04-08T01:17:35.927Z,102303.78
2023-04-08T01:20:04.522Z,102307.97
2023-04-08T01:23:02.131Z,102307.97
2023-04-08T01:25:34.173Z,102305.31
2023-04-08T01:28:03.720Z,102312.44
2023-04-08T01:30:31.293Z,102314.75
2023-04-08T01:33:00.593Z,102311.75
2023-04-08T01:35:27.617Z,102315.50
2023-04-08T01:37:55.684Z,102315.06
2023-04-08T01:40:22.374Z,102312.44
2023-04-08T01:42:50.720Z,102310.59
2023-04-08T01:45:18.386Z,102314.28
2023-04-08T01:47:49.039Z,102319.13
2023-04-08T01:50:16.766Z,102316.16
2023-04-08T01:52:49.096Z,102319.91
2023-04-08T01:55:16.395Z,102317.28
2023-04-08T01:57:51.530Z,102315.78
2023-04-08T02:00:26.659Z,102314.63
2023-04-08T02:02:53.929Z,102318.03
2023-04-08T02:05:20.661Z,102313.88
2023-04-08T02:07:50.580Z,102311.25
2023-04-08T02:10:17.052Z,102315.78
2023-04-08T02:12:44.571Z,102303.34
2023-04-08T02:15:12.957Z,102308.59
2023-04-08T02:17:50.625Z,102312.38
2023-04-08T02:20:31.152Z,102306.34
2023-04-08T02:23:08.392Z,102310.09
2023-04-08T02:25:37.702Z,102317.22
2023-04-08T02:28:09.691Z,102304.81
2023-04-08T02:30:37.582Z,102316.44
2023-04-08T02:33:06.080Z,102317.97
2023-04-08T02:35:32.993Z,102322.13
2023-04-08T02:37:59.756Z,102323.25
2023-04-08T02:40:31.545Z,102321.72
2023-04-08T02:42:58.459Z,102322.81
2023-04-08T02:45:29.981Z,102322.81
2023-04-08T02:47:56.598Z,102323.59
2023-04-08T02:50:23.159Z,102331.47
2023-04-08T02:52:49.633Z,102328.84
2023-04-08T02:55:16.446Z,102324.72
2023-04-08T02:57:43.183Z,102332.63
2023-04-08T03:00:10.545Z,102329.22
2023-04-08T03:02:37.149Z,102332.63
2023-04-08T03:05:05.468Z,102326.59
2023-04-08T03:07:32.645Z,102328.47
2023-04-08T03:09:59.168Z,102332.94
2023-04-08T03:12:27.639Z,102330.31
2023-04-08T03:14:54.469Z,102330.31
2023-04-08T03:17:21.795Z,102334.81
2023-04-08T03:19:48.256Z,102333.28
2023-04-08T03:22:14.691Z,102334.06
2023-04-08T03:24:41.183Z,102332.19
2023-04-08T03:27:08.459Z,102332.19
2023-04-08T03:29:35.075Z,102330.66
2023-04-08T03:32:01.794Z,102329.09
2023-04-08T03:34:28.281Z,102334.06
2023-04-08T03:36:54.759Z,102339.31
2023-04-08T03:39:21.243Z,102338.88
2023-04-08T03:41:47.739Z,102335.94
2023-04-08T03:44:14.176Z,102338.56
2023-04-08T03:46:40.774Z,102346.75
2023-04-08T03:49:07.469Z,102343.03
2023-04-08T03:51:33.980Z,102348.66
2023-04-08T03:54:00.488Z,102344.13
2023-04-08T03:56:27.067Z,102347.91
2023-04-08T03:58:53.569Z,102355.44
2023-04-08T04:01:19.980Z,102353.94
2023-04-08T04:03:46.623Z,102357.28
2023-04-08T04:06:13.171Z,102359.19
2023-04-08T04:08:39.621Z,102361.81
2023-04-08T04:11:06.118Z,102367.09
2023-04-08T04:13:32.582Z,102365.56
2023-04-08T04:15:59.123Z,102373.09
2023-04-08T04:18:25.757Z,102370.06
2023-04-08T04:20:52.287Z,102381.34
2023-04-08T04:23:18.711Z,102391.88
2023-04-08T04:25:45.145Z,102391.88
2023-04-08T04:28:11.602Z,102392.63
2023-04-08T04:30:38.973Z,102402.41
2023-04-08T04:33:05.934Z,102398.25
2023-04-08T04:35:32.754Z,102398.25
2023-04-08T04:37:59.587Z,102401.97
2023-04-08T04:40:26.159Z,102402.75
2023-04-08T04:42:52.609Z,102405.38
2023-04-08T04:45:19.178Z,102407.25
2023-04-08T04:47:45.641Z,102410.63
2023-04-08T04:50:12.122Z,102409.09
2023-04-08T04:52:38.627Z,102415.13
2023-04-08T04:55:05.703Z,102413.28
2023-04-08T04:57:32.139Z,102418.53
2023-04-08T04:59:58.960Z,102417.75
2023-04-08T05:02:25.590Z,102417.00
2023-04-08T05:04:53.787Z,102419.63
2023-04-08T05:07:20.360Z,102429.41
2023-04-08T05:09:46.862Z,102426.75
2023-04-08T05:12:13.498Z,102428.28
2023-04-08T05:14:41.307Z,102436.97
2023-04-08T05:17:07.945Z,102430.16
2023-04-08T05:19:34.390Z,102426.38
2023-04-08T05:22:00.964Z,102433.91
2023-04-08T05:24:27.360Z,102445.19
2023-04-08T05:26:53.818Z,102440.69
2023-04-08T05:29:21.812Z,102441.78
2023-04-08T05:31:48.501Z,102442.16
2023-04-08T05:34:15.984Z,102439.94
2023-04-08T05:36:42.566Z,102446.31
2023-04-08T05:39:09.047Z,102450.06
2023-04-08T05:41:35.505Z,102450.81
2023-04-08T05:44:01.998Z,102455.31
2023-04-08T05:46:28.516Z,102452.69
2023-04-08T05:48:54.941Z,102461.34
2023-04-08T05:51:21.381Z,102457.69
2023-04-08T05:53:47.818Z,102462.19
2023-04-08T05:56:14.249Z,102458.00
2023-04-08T05:58:41.059Z,102451.91
2023-04-08T06:01:07.550Z,102450.81
2023-04-08T06:03:34.192Z,102455.06
2023-04-08T06:06:00.871Z,102457.38
2023-04-08T06:08:27.361Z,102459.63
2023-04-08T06:10:53.797Z,102463.78
2023-04-08T06:13:21.114Z,102469.81
2023-04-08T06:15:50.354Z,102470.91
2023-04-08T06:18:17.637Z,102471.69
2023-04-08T06:20:44.275Z,102476.63
2023-04-08T06:23:10.800Z,102470.25
2023-04-08T06:25:37.216Z,102475.84
2023-04-08T06:28:03.809Z,102478.16
2023-04-08T06:30:30.281Z,102483.75
2023-04-08T06:32:56.783Z,102482.97
2023-04-08T06:35:23.323Z,102492.41
2023-04-08T06:37:49.760Z,102498.09
2023-04-08T06:40:16.334Z,102501.91
2023-04-08T06:42:44.551Z,102502.69
2023-04-08T06:45:11.357Z,102503.78
2023-04-08T06:47:37.876Z,102507.53
2023-04-08T06:50:04.685Z,102506.41
2023-04-08T06:52:31.171Z,102510.16
2023-04-08T06:54:57.591Z,102513.56
2023-04-08T06:57:24.034Z,102517.72
2023-04-08T06:59:50.780Z,102520.34
2023-04-08T07:02:17.466Z,102524.06
2023-04-08T07:04:46.666Z,102527.47
2023-04-08T07:07:13.306Z,102524.84
2023-04-08T07:09:41.586Z,102534.59
2023-04-08T07:12:08.022Z,102538.34
2023-04-08T07:14:34.610Z,102539.44
2023-04-08T07:17:01.136Z,102540.19
2023-04-08T07:19:27.710Z,102543.59
2023-04-08T07:21:54.306Z,102548.88
2023-04-08T07:24:20.810Z,102545.13
2023-04-08T07:26:47.788Z,102548.09
2023-04-08T07:29:14.264Z,102549.97
2023-04-08T07:31:41.027Z,102553.38
2023-04-08T07:34:07.499Z,102557.09
2023-04-08T07:36:33.946Z,102552.94
2023-04-08T07:39:00.439Z,102559.72
2023-04-08T07:41:27.096Z,102560.81
2023-04-08T07:43:53.640Z,102563.13
2023-04-08T07:46:21.058Z,102565.75
2023-04-08T07:48:47.731Z,102559.72
2023-04-08T07:51:14.906Z,102558.97
2023-04-08T07:53:41.514Z,102560.50
2023-04-08T07:56:12.594Z,102557.09
2023-04-08T07:58:40.502Z,102560.50
2023-04-08T08:01:21.254Z,102561.25
2023-04-08T08:03:49.061Z,102553.69
2023-04-08T08:06:15.956Z,102557.09
2023-04-08T08:08:42.480Z,102557.09
2023-04-08T08:11:09.214Z,102562.34
2023-04-08T08:13:35.855Z,102560.81
2023-04-08T08:16:02.439Z,102563.13
2023-04-08T08:18:28.932Z,102565.00
2023-04-08T08:20:55.359Z,102568.38
2023-04-08T08:23:22.091Z,102561.59
2023-04-08T08:25:48.552Z,102567.63
2023-04-08T08:28:15.014Z,102562.34
2023-04-08T08:30:41.451Z,102563.88
2023-04-08T08:33:08.079Z,102563.13
2023-04-08T08:35:34.653Z,102572.88
2023-04-08T08:38:01.249Z,102570.69
2023-04-08T08:40:27.764Z,102585.38
2023-04-08T08:42:54.190Z,102587.25
2023-04-08T08:45:21.272Z,102587.25
2023-04-08T08:47:50.337Z,102594.81
2023-04-08T08:50:17.668Z,102589.88
2023-04-08T08:52:51.403Z,102589.53
2023-04-08T08:55:41.454Z,102591.41
2023-04-08T08:58:08.252Z,102588.78
2023-04-08T09:00:36.747Z,102594.81
2023-04-08T09:03:19.960Z,102586.91
2023-04-08T09:05:57.751Z,102585.03
2023-04-08T09:08:30.110Z,102587.69
2023-04-08T09:17:40.423Z,102659.91
2023-04-08T09:20:13.640Z,102664.13
2023-04-08T09:23:09.645Z,102663.88
2023-04-08T09:25:36.347Z,102661.22
2023-04-08T09:28:03.306Z,102661.81
2023-04-08T09:30:32.268Z,102656.47
2023-04-08T09:32:59.218Z,102664.66
2023-04-08T09:35:26.136Z,102665.34
2023-04-08T09:37:52.786Z,102669.44
2023-04-08T09:40:19.443Z,102664.13
2023-04-08T09:42:50.575Z,102667.84
2023-04-08T09:45:18.273Z,102664.81
2023-04-08T09:47:58.032Z,102668.56
2023-04-08T09:50:32.226Z,102671.97
2023-04-08T09:53:18.881Z,102672.28
2023-04-08T09:55:51.358Z,102673.34
2023-04-08T09:58:27.643Z,102674.06
2023-04-08T10:00:55.382Z,102671.75
2023-04-08T10:03:37.437Z,102675.94
2023-04-08T10:06:04.591Z,102662.66
2023-04-08T10:08:33.086Z,102675.94
2023-04-08T10:10:59.897Z,102664.63
2023-04-08T10:13:28.441Z,102669.19
2023-04-08T10:16:23.166Z,102663.97
2023-04-08T10:18:52.950Z,102664.38
2023-04-08T10:21:39.695Z,102662.19
2023-04-08T10:24:08.380Z,102663.28
2023-04-08T10:26:43.304Z,102656.91
2023-04-08T10:29:18.787Z,102658.06
2023-04-08T10:31:47.049Z,102660.31
2023-04-08T10:34:21.332Z,102656.53
2023-04-08T10:36:48.913Z,102652.41
2023-04-08T10:39:18.502Z,102652.28
2023-04-08T10:41:46.322Z,102646.19
2023-04-08T10:44:20.408Z,102648.84
2023-04-08T10:46:48.459Z,102646.19
2023-04-08T10:49:17.952Z,102648.50
2023-04-08T10:51:45.940Z,102651.09
2023-04-08T10:54:14.611Z,102647.69
2023-04-08T10:56:52.456Z,102654.41
2023-04-08T10:59:33.042Z,102650.31
2023-04-08T11:02:01.443Z,102647.59
2023-04-08T11:04:28.495Z,102652.53
2023-04-08T11:06:55.532Z,102645.28
2023-04-08T11:09:22.123Z,102643.78
2023-04-08T11:11:48.676Z,102638.91
2023-04-08T11:14:17.370Z,102635.50
2023-04-08T11:16:44.015Z,102635.09
2023-04-08T11:19:10.681Z,102637.81
2023-04-08T11:21:38.708Z,102634.75
2023-04-08T11:24:16.516Z,102641.91
2023-04-08T11:26:43.407Z,102628.66
2023-04-08T11:29:14.196Z,102645.63
2023-04-08T11:31:41.825Z,102639.22
2023-04-08T11:34:08.395Z,102636.91
2023-04-08T11:36:36.672Z,102637.63
2023-04-08T11:39:10.367Z,102636.16
2023-04-08T11:41:39.192Z,102626.34
2023-04-08T11:44:07.018Z,102636.50
2023-04-08T11:46:35.101Z,102638.44
2023-04-08T11:49:03.849Z,102633.94
2023-04-08T11:51:30.695Z,102630.88
2023-04-08T11:53:57.894Z,102638.44
2023-04-08T11:56:25.537Z,102644.81
2023-04-08T11:58:52.847Z,102643.22
2023-04-08T12:01:19.785Z,102635.28
2023-04-08T12:03:57.320Z,102645.53
2023-04-08T12:06:24.629Z,102645.84
2023-04-08T12:08:51.048Z,102636.16
2023-04-08T12:11:20.026Z,102639.97
2023-04-08T12:13:47.013Z,102629.03
2023-04-08T12:16:14.323Z,102631.63
2023-04-08T12:18:40.955Z,102630.09
2023-04-08T12:21:07.806Z,102623.97
2023-04-08T12:23:34.460Z,102625.97
2023-04-08T12:26:00.906Z,102630.53
2023-04-08T12:28:27.528Z,102630.53
2023-04-08T12:30:54.050Z,102631.63
2023-04-08T12:33:20.546Z,102630.09
2023-04-08T12:35:47.062Z,102631.97
2023-04-08T12:38:13.477Z,102625.59
2023-04-08T12:40:39.889Z,102630.88
2023-04-08T12:43:06.394Z,102629.81
2023-04-08T12:45:32.966Z,102632.53
2023-04-08T12:47:59.460Z,102633.22
2023-04-08T12:50:26.274Z,102619.94
2023-04-08T12:52:52.749Z,102623.22
2023-04-08T12:55:19.192Z,102630.03
2023-04-08T12:57:45.708Z,102633.13
2023-04-08T13:00:13.716Z,102632.41
2023-04-08T13:02:42.223Z,102630.25
2023-04-08T13:05:09.151Z,102631.09
2023-04-08T13:07:35.709Z,102622.66
2023-04-08T13:10:03.621Z,102628.66
2023-04-08T13:12:30.402Z,102635.09
2023-04-08T13:14:56.892Z,102642.25
2023-04-08T13:17:23.379Z,102634.69
2023-04-08T13:19:50.742Z,102635.47
2023-04-08T13:22:17.358Z,102626.34
2023-04-08T13:24:43.854Z,102628.22
2023-04-08T13:27:10.393Z,102625.72
2023-04-08T13:29:36.869Z,102629.03
2023-04-08T13:32:03.407Z,102629.81
2023-04-08T13:34:29.875Z,102625.69
2023-04-08T13:36:56.332Z,102618.44
2023-04-08T13:39:22.983Z,102624.06
2023-04-08T13:41:49.952Z,102612.00
2023-04-08T13:44:17.076Z,102610.53
2023-04-08T13:46:43.528Z,102613.94
2023-04-08T13:49:10.941Z,102612.41
2023-04-08T13:51:37.394Z,102615.81
2023-04-08T13:54:03.929Z,102618.09
2023-04-08T13:56:30.348Z,102617.69
2023-04-08T13:58:57.627Z,102618.09
2023-04-08T14:01:24.400Z,102613.59
2023-04-08T14:03:50.883Z,102614.38
2023-04-08T14:06:17.418Z,102617.75
2023-04-08T14:08:43.883Z,102613.22
2023-04-08T14:11:10.488Z,102606.84
2023-04-08T14:13:36.917Z,102606.84
2023-04-08T14:16:03.458Z,102603.84
2023-04-08T14:18:29.937Z,102604.63
2023-04-08T14:20:56.813Z,102595.59
2023-04-08T14:23:23.263Z,102599.34
2023-04-08T14:25:49.765Z,102597.91
2023-04-08T14:28:16.250Z,102591.50
2023-04-08T14:30:42.940Z,102590.81
2023-04-08T14:33:09.870Z,102589.69
2023-04-08T14:35:36.936Z,102599.91
2023-04-08T14:38:03.430Z,102595.78
2023-04-08T14:40:29.890Z,102595.78
2023-04-08T14:42:56.416Z,102598.09
2023-04-08T14:45:23.045Z,102597.34
2023-04-08T14:47:49.579Z,102594.34
2023-04-08T14:50:16.848Z,102588.31
2023-04-08T14:52:45.224Z,102589.44
2023-04-08T14:55:12.112Z,102579.69
2023-04-08T14:57:38.608Z,102581.72
2023-04-08T15:00:05.844Z,102587.06
2023-04-08T15:02:32.371Z,102593.13
2023-04-08T15:04:58.905Z,102587.44
2023-04-08T15:07:25.978Z,102587.91
2023-04-08T15:09:54.195Z,102581.53
2023-04-08T15:12:21.072Z,102580.41
2023-04-08T15:14:47.553Z,102580.47
2023-04-08T15:17:14.091Z,102578.97
2023-04-08T15:19:40.557Z,102577.47
2023-04-08T15:22:07.223Z,102584.69
2023-04-08T15:24:33.711Z,102578.25
2023-04-08T15:27:00.878Z,102582.38
2023-04-08T15:29:27.507Z,102579.75
2023-04-08T15:31:53.980Z,102585.13
2023-04-08T15:34:20.469Z,102585.50
2023-04-08T15:36:47.661Z,102586.25
2023-04-08T15:39:14.166Z,102594.53
2023-04-08T15:41:40.697Z,102595.72
2023-04-08T15:44:07.125Z,102592.00
2023-04-08T15:46:35.014Z,102594.25
2023-04-08T15:49:03.357Z,102592.84
2023-04-08T15:51:29.853Z,102592.47
2023-04-08T15:53:56.553Z,102594.03
2023-04-08T15:56:23.089Z,102590.38
2023-04-08T15:58:49.701Z,102599.44
2023-04-08T16:01:16.998Z,102600.47
2023-04-08T16:03:43.693Z,102594.44
2023-04-08T16:06:10.319Z,102597.81
2023-04-08T16:08:37.154Z,102599.81
2023-04-08T16:11:06.305Z,102602.88
2023-04-08T16:13:34.201Z,102598.28
2023-04-08T16:16:04.038Z,102597.91
2023-04-08T16:18:30.716Z,102594.47
2023-04-08T16:20:57.207Z,102599.31
2023-04-08T16:23:23.925Z,102597.81
2023-04-08T16:25:50.420Z,102599.69
2023-04-08T16:28:18.100Z,102597.06
2023-04-08T16:30:44.844Z,102604.97
2023-04-08T16:33:11.676Z,102597.06
2023-04-08T16:35:38.618Z,102598.66
2023-04-08T16:38:06.129Z,102602.72
2023-04-08T16:40:33.599Z,102595.94
2023-04-08T16:43:01.683Z,102603.44
2023-04-08T16:45:29.697Z,102601.94
2023-04-08T16:47:56.961Z,102607.97
2023-04-08T16:50:23.561Z,102601.16
2023-04-08T16:52:50.639Z,102602.69
2023-04-08T16:55:17.889Z,102604.22
2023-04-08T16:57:44.481Z,102602.34
2023-04-08T17:00:11.359Z,102606.50
2023-04-08T17:02:38.039Z,102603.50
2023-04-08T17:05:04.946Z,102602.38
2023-04-08T17:07:31.609Z,102611.09
2023-04-08T17:09:58.208Z,102608.78
2023-04-08T17:12:25.004Z,102607.66
2023-04-08T17:14:51.653Z,102610.00
2023-04-08T17:17:18.178Z,102608.84
2023-04-08T17:19:44.626Z,102607.34
2023-04-08T17:22:11.366Z,102615.28
2023-04-08T17:24:38.095Z,102614.50
2023-04-08T17:27:05.552Z,102614.50
2023-04-08T17:29:32.026Z,102616.66
2023-04-08T17:31:58.942Z,102614.78
2023-04-08T17:34:26.380Z,102617.78
2023-04-08T17:36:52.937Z,102617.06
2023-04-08T17:39:19.542Z,102614.44
2023-04-08T17:41:46.278Z,102611.72
2023-04-08T17:44:13.007Z,102616.19
2023-04-08T17:46:39.740Z,102615.84
2023-04-08T17:49:06.255Z,102613.84
2023-04-08T17:51:33.079Z,102614.91
2023-04-08T17:53:59.715Z,102616.03
2023-04-08T17:56:27.923Z,102620.59
2023-04-08T17:58:54.563Z,102611.53
2023-04-08T18:01:22.519Z,102613.03
2023-04-08T18:03:52.247Z,102614.47
2023-04-08T18:06:18.946Z,102608.00
2023-04-08T18:08:45.505Z,102615.69
2023-04-08T18:11:12.211Z,102615.31
2023-04-08T18:13:38.873Z,102618.34
2023-04-08T18:16:05.765Z,102610.50
2023-04-08T18:18:32.347Z,102613.13
2023-04-08T18:20:58.992Z,102616.06
2023-04-08T18:23:25.576Z,102617.53
2023-04-08T18:25:52.157Z,102618.72
2023-04-08T18:28:18.681Z,102622.88
2023-04-08T18:30:45.327Z,102624.00
2023-04-08T18:33:11.850Z,102620.59
2023-04-08T18:35:38.304Z,102623.22
2023-04-08T18:38:04.833Z,102627.09
2023-04-08T18:40:31.560Z,102625.38
2023-04-08T18:43:02.091Z,102637.25
2023-04-08T18:45:29.433Z,102630.97
2023-04-08T18:47:56.070Z,102634.31
2023-04-08T18:50:23.264Z,102643.19
2023-04-08T18:52:50.007Z,102646.75
2023-04-08T18:55:16.657Z,102648.69
2023-04-08T18:57:43.148Z,102652.16
2023-04-08T19:00:09.885Z,102648.81
2023-04-08T19:02:36.556Z,102646.22
2023-04-08T19:05:04.032Z,102651.06
2023-04-08T19:07:30.832Z,102650.22
2023-04-08T19:09:58.559Z,102644.94
2023-04-08T19:12:26.301Z,102648.38
2023-04-08T19:14:55.531Z,102658.59
2023-04-08T19:17:22.140Z,102658.59
2023-04-08T19:19:48.591Z,102662.03
2023-04-08T19:22:15.053Z,102660.66
2023-04-08T19:24:42.048Z,102664.81
2023-04-08T19:27:08.806Z,102661.81
2023-04-08T19:29:35.238Z,102668.22
2023-04-08T19:32:03.066Z,102666.34
2023-04-08T19:34:30.151Z,102663.34
2023-04-08T19:36:56.651Z,102664.84
2023-04-08T19:39:25.261Z,102667.91
2023-04-08T19:41:53.143Z,102669.38
2023-04-08T19:44:19.638Z,102665.59
2023-04-08T19:46:46.332Z,102676.13
2023-04-08T19:49:12.885Z,102668.53
2023-04-08T19:51:39.340Z,102663.25
2023-04-08T19:54:05.827Z,102676.91
2023-04-08T19:56:35.380Z,102673.13
2023-04-08T19:59:02.014Z,102672.72
2023-04-08T20:03:55.765Z,102673.75
2023-04-08T20:06:23.159Z,102679.78
2023-04-08T20:08:51.848Z,102686.94
2023-04-08T20:11:19.221Z,102680.88
2023-04-08T20:13:47.084Z,102684.66
2023-04-08T20:16:13.767Z,102682.78
2023-04-08T20:18:40.696Z,102686.56
2023-04-08T20:21:08.209Z,102689.41
2023-04-08T20:23:34.859Z,102689.41
2023-04-08T20:26:01.517Z,102693.13
2023-04-08T20:28:28.218Z,102691.84
2023-04-08T20:30:54.763Z,102695.34
2023-04-08T20:33:21.280Z,102702.75
2023-04-08T20:35:50.447Z,102701.88
2023-04-08T20:38:17.225Z,102700.41
2023-04-08T20:40:46.806Z,102701.88
2023-04-08T20:43:13.251Z,102707.50
2023-04-08T20:45:39.743Z,102708.81
2023-04-08T20:48:07.441Z,102714.78
2023-04-08T20:50:34.218Z,102707.59
2023-04-08T20:53:00.866Z,102704.50
2023-04-08T20:55:28.342Z,102708.59
2023-04-08T20:57:54.785Z,102708.88
2023-04-08T21:00:21.355Z,102708.44
2023-04-08T21:02:48.434Z,102711.06
2023-04-08T21:05:15.035Z,102706.03
2023-04-08T21:07:44.524Z,102707.59
2023-04-08T21:10:12.576Z,102710.13
2023-04-08T21:12:39.011Z,102715.69
2023-04-08T21:15:05.995Z,102713.00
2023-04-08T21:17:32.508Z,102712.22
2023-04-08T21:19:58.990Z,102715.56
2023-04-08T21:22:25.440Z,102713.34
2023-04-08T21:24:51.870Z,102717.78
2023-04-08T21:27:18.378Z,102713.19
2023-04-08T21:29:44.840Z,102713.16
2023-04-08T21:32:11.306Z,102714.69
2023-04-08T21:34:37.865Z,102717.72
2023-04-08T21:37:04.293Z,102710.06
2023-04-08T21:39:30.742Z,102715.34
2023-04-08T21:41:57.515Z,102708.56
2023-04-08T21:44:24.116Z,102711.88
2023-04-08T21:46:50.646Z,102710.06
2023-04-08T21:49:17.214Z,102709.69
2023-04-08T21:51:43.668Z,102708.91
2023-04-08T21:54:10.345Z,102703.56
2023-04-08T21:56:36.843Z,102711.09
2023-04-08T21:59:04.148Z,102714.97
2023-04-08T22:01:30.815Z,102714.25
2023-04-08T22:03:58.015Z,102713.09
2023-04-08T22:06:32.119Z,102713.75
2023-04-08T22:08:58.955Z,102708.84
2023-04-08T22:11:25.540Z,102708.75
2023-04-08T22:13:52.031Z,102712.91
2023-04-08T22:16:18.657Z,102713.63
2023-04-08T22:18:45.532Z,102715.91
2023-04-08T22:21:12.158Z,102724.56
2023-04-08T22:23:39.046Z,102718.53
2023-04-08T22:26:05.548Z,102714.72
2023-04-08T22:28:34.196Z,102719.25
2023-04-08T22:31:01.398Z,102715.75
2023-04-08T22:33:28.067Z,102718.53
2023-04-08T22:35:57.496Z,102712.44
2023-04-08T22:38:24.213Z,102716.94
2023-04-08T22:40:51.101Z,102714.72
2023-04-08T22:43:17.614Z,102713.88
2023-04-08T22:45:44.121Z,102715.69
2023-04-08T22:48:10.642Z,102716.81
2023-04-08T22:50:37.111Z,102720.97
2023-04-08T22:53:03.879Z,102719.09
2023-04-08T22:55:31.150Z,102718.69
2023-04-08T22:57:57.752Z,102714.09
2023-04-08T23:00:24.393Z,102722.00
2023-04-08T23:02:51.130Z,102708.47
2023-04-08T23:05:17.949Z,102709.59
2023-04-08T23:07:44.383Z,102710.38
2023-04-08T23:10:11.001Z,102709.22
2023-04-08T23:12:37.504Z,102709.66
2023-04-08T23:15:04.553Z,102711.59
2023-04-08T23:17:31.136Z,102699.09
2023-04-08T23:19:57.639Z,102701.75
2023-04-08T23:22:24.280Z,102707.84
2023-04-08T23:24:50.808Z,102704.38
2023-04-08T23:27:17.302Z,102710.06
2023-04-08T23:29:43.772Z,102710.91
2023-04-08T23:32:10.310Z,102703.34
2023-04-08T23:34:37.365Z,102704.03
2023-04-08T23:37:04.403Z,102703.28
2023-04-08T23:39:31.963Z,102701.81
2023-04-08T23:41:58.409Z,102699.94
2023-04-08T23:44:24.879Z,102708.53
2023-04-08T23:46:51.346Z,102698.69
2023-04-08T23:49:17.883Z,102700.47
2023-04-08T23:51:46.881Z,102702.69
2023-04-08T23:54:13.310Z,102695.19
2023-04-08T23:56:42.837Z,102686.16
2023-04-08T23:59:09.262Z,102693.25
